createdAt,value
2019-04-03T00:01:16.980Z,15.17
2019-04-03T00:03:44.139Z,15.15
2019-04-03T00:06:11.438Z,14.85
2019-04-03T00:08:39.206Z,14.65
2019-04-03T00:11:08.641Z,14.49
2019-04-03T00:13:35.351Z,14.34
2019-04-03T00:16:02.814Z,13.96
2019-04-03T00:18:29.879Z,13.78
2019-04-03T00:20:56.937Z,13.64
2019-04-03T00:23:24.151Z,13.51
2019-04-03T00:25:52.380Z,13.37
2019-04-03T00:28:22.024Z,13.12
2019-04-03T00:30:49.288Z,12.94
2019-04-03T00:33:16.337Z,12.78
2019-04-03T00:35:43.427Z,12.86
2019-04-03T00:38:10.483Z,12.93
2019-04-03T00:40:37.995Z,12.89
2019-04-03T00:43:05.049Z,12.90
2019-04-03T00:45:32.616Z,12.66
2019-04-03T00:47:59.873Z,12.52
2019-04-03T00:50:27.198Z,12.54
2019-04-03T00:52:54.244Z,12.65
2019-04-03T00:55:21.293Z,12.70
2019-04-03T00:57:48.331Z,12.93
2019-04-03T01:00:16.315Z,13.07
2019-04-03T01:02:43.493Z,13.08
2019-04-03T01:05:11.066Z,12.89
2019-04-03T01:07:38.109Z,12.88
2019-04-03T01:10:05.441Z,13.02
2019-04-03T01:12:32.627Z,13.10
2019-04-03T01:15:01.636Z,13.26
2019-04-03T01:17:29.194Z,13.42
2019-04-03T01:19:56.314Z,13.71
2019-04-03T01:22:23.874Z,13.78
2019-04-03T01:24:50.869Z,13.83
2019-04-03T01:27:17.903Z,13.98
2019-04-03T01:29:45.333Z,14.18
2019-04-03T01:32:15.494Z,14.36
2019-04-03T01:34:41.518Z,14.33
2019-04-03T01:37:09.109Z,14.30
2019-04-03T01:39:36.182Z,14.11
2019-04-03T01:42:03.286Z,14.13
2019-04-03T01:44:33.432Z,14.19
2019-04-03T01:47:00.841Z,14.26
2019-04-03T01:49:31.425Z,14.27
2019-04-03T01:52:00.895Z,14.20
2019-04-03T01:54:28.232Z,14.19
2019-04-03T01:56:55.378Z,14.28
2019-04-03T01:59:22.437Z,14.33
2019-04-03T02:01:49.787Z,14.33
2019-04-03T02:04:16.844Z,14.22
2019-04-03T02:06:44.384Z,14.12
2019-04-03T02:09:11.524Z,13.96
2019-04-03T02:11:40.479Z,13.84
2019-04-03T02:14:07.529Z,13.68
2019-04-03T02:16:34.533Z,13.62
2019-04-03T02:19:01.640Z,13.58
2019-04-03T02:21:29.051Z,13.54
2019-04-03T02:23:57.514Z,13.59
2019-04-03T02:26:24.803Z,13.71
2019-04-03T02:28:52.223Z,13.63
2019-04-03T02:31:20.235Z,13.67
2019-04-03T02:33:47.957Z,13.68
2019-04-03T02:36:16.100Z,13.64
2019-04-03T02:38:43.593Z,13.63
2019-04-03T02:41:10.699Z,13.52
2019-04-03T02:43:37.774Z,13.47
2019-04-03T02:46:05.159Z,13.48
2019-04-03T02:48:37.370Z,13.50
2019-04-03T02:51:02.212Z,13.63
2019-04-03T02:53:30.812Z,13.69
2019-04-03T02:55:58.210Z,13.63
2019-04-03T02:58:25.339Z,13.53
2019-04-03T03:00:53.015Z,13.49
2019-04-03T03:03:20.183Z,13.48
2019-04-03T03:05:47.207Z,13.38
2019-04-03T03:08:15.227Z,13.08
2019-04-03T03:10:42.449Z,13.09
2019-04-03T03:13:09.767Z,13.04
2019-04-03T03:15:37.972Z,12.93
2019-04-03T03:18:04.980Z,12.68
2019-04-03T03:20:33.934Z,12.66
2019-04-03T03:23:08.454Z,12.73
2019-04-03T03:25:46.811Z,12.81
2019-04-03T03:28:16.291Z,12.93
2019-04-03T03:30:54.913Z,13.13
2019-04-03T03:33:31.029Z,13.11
2019-04-03T03:35:47.187Z,13.22
2019-04-03T03:38:15.781Z,13.32
2019-04-03T03:40:47.307Z,13.32
2019-04-03T03:43:15.051Z,13.27
2019-04-03T03:45:42.571Z,13.13
2019-04-03T03:48:11.036Z,13.00
2019-04-03T03:50:39.079Z,12.99
2019-04-03T03:53:10.192Z,12.76
2019-04-03T03:55:36.714Z,12.72
2019-04-03T03:58:06.090Z,12.72
2019-04-03T04:00:35.517Z,12.64
2019-04-03T04:03:03.514Z,12.46
2019-04-03T04:05:30.548Z,12.29
2019-04-03T04:07:57.868Z,12.23
2019-04-03T04:10:27.712Z,12.34
2019-04-03T04:12:56.219Z,12.48
2019-04-03T04:15:23.793Z,12.51
2019-04-03T04:17:52.368Z,12.34
2019-04-03T04:20:19.888Z,12.27
2019-04-03T04:22:55.117Z,12.20
2019-04-03T04:25:30.957Z,12.09
2019-04-03T04:28:03.557Z,11.95
2019-04-03T04:30:31.276Z,11.99
2019-04-03T04:32:59.915Z,12.02
2019-04-03T04:35:27.399Z,12.03
2019-04-03T04:37:56.761Z,11.92
2019-04-03T04:40:24.166Z,11.98
2019-04-03T04:42:52.635Z,11.88
2019-04-03T04:45:19.696Z,11.78
2019-04-03T04:47:46.905Z,11.77
2019-04-03T04:50:20.288Z,11.68
2019-04-03T04:52:48.016Z,11.54
2019-04-03T04:55:16.129Z,11.32
2019-04-03T04:57:43.246Z,11.37
2019-04-03T05:00:10.822Z,11.31
2019-04-03T05:02:39.073Z,11.32
2019-04-03T05:05:08.489Z,11.17
2019-04-03T05:07:35.274Z,11.09
2019-04-03T05:10:05.899Z,10.99
2019-04-03T05:12:33.558Z,10.93
2019-04-03T05:15:00.588Z,10.77
2019-04-03T05:17:27.693Z,10.76
2019-04-03T05:19:55.339Z,10.63
2019-04-03T05:22:23.760Z,10.82
2019-04-03T05:24:54.351Z,10.83
2019-04-03T05:27:22.871Z,10.74
2019-04-03T05:29:52.872Z,10.79
2019-04-03T05:32:20.303Z,10.96
2019-04-03T05:34:48.002Z,10.88
2019-04-03T05:37:19.710Z,10.82
2019-04-03T05:39:45.944Z,10.71
2019-04-03T05:42:13.011Z,10.76
2019-04-03T05:44:40.204Z,10.81
2019-04-03T05:47:07.862Z,10.83
2019-04-03T05:49:36.053Z,10.96
2019-04-03T05:52:04.706Z,11.10
2019-04-03T05:54:31.936Z,11.17
2019-04-03T05:56:59.041Z,11.05
2019-04-03T05:59:26.095Z,11.13
2019-04-03T06:01:53.127Z,11.18
2019-04-03T06:04:20.330Z,11.29
2019-04-03T06:06:47.865Z,11.41
2019-04-03T06:09:15.025Z,11.30
2019-04-03T06:11:42.087Z,11.22
2019-04-03T06:14:10.328Z,11.27
2019-04-03T06:16:37.618Z,11.26
2019-04-03T06:19:06.425Z,11.30
2019-04-03T06:21:33.774Z,11.21
2019-04-03T06:24:00.768Z,11.15
2019-04-03T06:26:29.599Z,11.23
2019-04-03T06:28:56.756Z,11.43
2019-04-03T06:31:24.343Z,11.54
2019-04-03T06:33:54.005Z,11.73
2019-04-03T06:36:21.253Z,11.84
2019-04-03T06:38:48.807Z,11.86
2019-04-03T06:41:16.188Z,12.18
2019-04-03T06:43:49.124Z,12.25
2019-04-03T06:46:14.766Z,12.39
2019-04-03T06:48:41.840Z,12.48
2019-04-03T06:51:08.848Z,12.66
2019-04-03T06:53:35.940Z,12.44
2019-04-03T06:56:03.116Z,12.45
2019-04-03T06:58:38.140Z,12.43
2019-04-03T07:00:59.586Z,12.21
2019-04-03T07:03:26.978Z,12.42
2019-04-03T07:05:54.332Z,12.36
2019-04-03T07:08:29.355Z,12.34
2019-04-03T07:10:55.274Z,12.24
2019-04-03T07:13:23.755Z,11.98
2019-04-03T07:15:50.801Z,12.11
2019-04-03T07:18:19.855Z,12.20
2019-04-03T07:20:47.366Z,12.30
2019-04-03T07:23:14.370Z,12.37
2019-04-03T07:25:41.755Z,12.44
2019-04-03T07:28:09.530Z,12.48
2019-04-03T07:30:36.801Z,12.51
2019-04-03T07:33:05.807Z,12.58
2019-04-03T07:35:33.504Z,12.79
2019-04-03T07:38:00.521Z,13.23
2019-04-03T07:40:27.949Z,13.57
2019-04-03T07:42:55.989Z,13.92
2019-04-03T07:45:27.742Z,14.21
2019-04-03T07:47:54.812Z,14.32
2019-04-03T07:50:22.297Z,14.59
2019-04-03T07:52:49.331Z,14.44
2019-04-03T07:55:16.369Z,14.22
2019-04-03T07:57:46.167Z,14.05
2019-04-03T08:00:14.921Z,14.33
2019-04-03T08:02:47.308Z,14.47
2019-04-03T08:05:13.494Z,14.60
2019-04-03T08:07:40.580Z,14.54
2019-04-03T08:10:08.261Z,14.92
2019-04-03T08:12:35.887Z,15.07
2019-04-03T08:15:04.179Z,15.02
2019-04-03T08:17:31.371Z,15.10
2019-04-03T08:19:58.733Z,14.41
2019-04-03T08:22:25.920Z,14.01
2019-04-03T08:24:53.814Z,13.67
2019-04-03T08:27:23.455Z,13.66
2019-04-03T08:29:52.116Z,13.59
2019-04-03T08:32:19.521Z,13.74
2019-04-03T08:34:47.546Z,13.56
2019-04-03T08:37:15.997Z,13.58
2019-04-03T08:39:44.005Z,13.47
2019-04-03T08:42:15.045Z,13.35
2019-04-03T08:44:42.181Z,12.95
2019-04-03T08:47:13.618Z,12.53
2019-04-03T08:49:40.868Z,12.29
2019-04-03T08:52:08.278Z,12.23
2019-04-03T08:54:35.454Z,12.27
2019-04-03T08:57:03.362Z,12.12
2019-04-03T08:59:30.584Z,11.97
2019-04-03T09:01:57.625Z,11.81
2019-04-03T09:04:24.778Z,11.84
2019-04-03T09:06:54.139Z,11.89
2019-04-03T09:09:20.818Z,12.04
2019-04-03T09:11:49.711Z,11.67
2019-04-03T09:14:19.375Z,10.07
2019-04-03T09:16:46.255Z,9.73
2019-04-03T09:19:13.594Z,9.42
2019-04-03T09:21:41.585Z,9.52
2019-04-03T09:24:09.251Z,8.93
2019-04-03T09:26:38.031Z,8.70
2019-04-03T09:29:05.337Z,8.46
2019-04-03T09:31:32.365Z,8.59
2019-04-03T09:33:59.521Z,8.77
2019-04-03T09:36:26.971Z,9.03
2019-04-03T09:38:54.529Z,9.37
2019-04-03T09:41:21.599Z,9.22
2019-04-03T09:43:49.734Z,9.41
2019-04-03T09:46:16.828Z,9.48
2019-04-03T09:48:43.882Z,9.90
2019-04-03T09:51:11.042Z,10.24
2019-04-03T09:53:38.814Z,10.00
2019-04-03T09:56:08.005Z,9.51
2019-04-03T09:58:35.819Z,9.21
2019-04-03T10:01:06.085Z,9.24
2019-04-03T10:03:35.863Z,9.41
2019-04-03T10:06:03.352Z,9.55
2019-04-03T10:08:30.819Z,9.34
2019-04-03T10:10:58.102Z,9.34
2019-04-03T10:13:26.325Z,9.84
2019-04-03T10:15:53.772Z,9.78
2019-04-03T10:18:22.151Z,8.93
2019-04-03T10:20:49.787Z,8.69
2019-04-03T10:23:17.275Z,8.60
2019-04-03T10:25:44.315Z,8.14
2019-04-03T10:28:14.801Z,8.21
2019-04-03T10:30:41.408Z,8.10
2019-04-03T10:33:10.005Z,8.11
2019-04-03T10:35:38.905Z,7.92
2019-04-03T10:38:06.331Z,8.00
2019-04-03T10:40:34.223Z,8.24
2019-04-03T10:43:04.619Z,8.28
2019-04-03T10:45:31.600Z,8.55
2019-04-03T10:47:59.048Z,8.34
2019-04-03T10:50:26.339Z,8.44
2019-04-03T10:52:54.672Z,8.62
2019-04-03T10:55:25.862Z,8.69
2019-04-03T10:57:54.402Z,8.71
2019-04-03T11:00:22.087Z,8.49
2019-04-03T11:02:50.418Z,8.45
2019-04-03T11:05:17.776Z,8.38
2019-04-03T11:07:45.439Z,8.93
2019-04-03T11:10:13.522Z,9.39
2019-04-03T11:12:41.992Z,9.01
2019-04-03T11:15:12.641Z,9.41
2019-04-03T11:17:40.546Z,9.77
2019-04-03T11:20:11.941Z,10.36
2019-04-03T11:22:43.398Z,10.20
2019-04-03T11:25:14.775Z,9.68
2019-04-03T11:27:44.778Z,9.54
2019-04-03T11:30:18.210Z,9.70
2019-04-03T11:32:44.018Z,9.81
2019-04-03T11:35:11.696Z,10.63
2019-04-03T11:37:40.876Z,10.34
2019-04-03T11:40:12.083Z,9.84
2019-04-03T11:42:39.248Z,11.11
2019-04-03T11:45:07.061Z,12.44
2019-04-03T11:47:35.002Z,14.35
2019-04-03T11:50:02.329Z,14.98
2019-04-03T11:52:29.785Z,16.14
2019-04-03T11:54:57.269Z,16.41
2019-04-03T11:57:26.813Z,15.98
2019-04-03T11:59:55.538Z,16.37
2019-04-03T12:02:23.891Z,16.22
2019-04-03T12:04:50.876Z,15.43
2019-04-03T12:07:18.646Z,14.89
2019-04-03T12:09:45.974Z,15.25
2019-04-03T12:12:13.508Z,15.61
2019-04-03T12:14:40.718Z,13.81
2019-04-03T12:17:13.581Z,12.64
2019-04-03T12:19:41.336Z,12.37
2019-04-03T12:22:08.910Z,12.83
2019-04-03T12:24:36.292Z,14.15
2019-04-03T12:27:03.826Z,15.08
2019-04-03T12:29:37.560Z,15.64
2019-04-03T12:32:09.045Z,15.93
2019-04-03T12:34:38.637Z,15.73
2019-04-03T12:37:09.364Z,16.06
2019-04-03T12:39:46.232Z,15.52
2019-04-03T12:42:19.981Z,15.03
2019-04-03T12:44:52.119Z,15.18
2019-04-03T12:47:32.062Z,15.36
2019-04-03T12:50:03.097Z,15.41
2019-04-03T12:52:32.029Z,14.22
2019-04-03T12:55:00.869Z,13.66
2019-04-03T12:57:28.317Z,14.46
2019-04-03T12:59:55.752Z,15.23
2019-04-03T13:02:25.018Z,14.95
2019-04-03T13:04:52.037Z,14.37
2019-04-03T13:07:29.543Z,12.38
2019-04-03T13:09:59.100Z,10.90
2019-04-03T13:12:27.988Z,11.55
2019-04-03T13:14:55.289Z,11.65
2019-04-03T13:17:22.565Z,12.03
2019-04-03T13:19:55.129Z,12.68
2019-04-03T13:22:22.479Z,13.13
2019-04-03T13:24:50.124Z,13.79
2019-04-03T13:27:18.844Z,13.95
2019-04-03T13:29:47.023Z,13.65
2019-04-03T13:32:16.449Z,13.92
2019-04-03T13:34:43.314Z,14.22
2019-04-03T13:37:11.761Z,14.04
2019-04-03T13:39:39.349Z,14.70
2019-04-03T13:42:07.289Z,15.84
2019-04-03T13:44:36.790Z,17.51
2019-04-03T13:47:04.381Z,18.18
2019-04-03T13:52:49.650Z,17.09
2019-04-03T13:55:18.832Z,16.65
2019-04-03T13:57:46.953Z,16.29
2019-04-03T14:00:21.891Z,15.95
2019-04-03T14:02:45.999Z,15.16
2019-04-03T14:05:13.312Z,14.39
2019-04-03T14:07:41.871Z,14.15
2019-04-03T14:10:11.002Z,14.19
2019-04-03T14:12:44.198Z,13.86
2019-04-03T14:15:10.153Z,13.76
2019-04-03T14:17:37.313Z,14.01
2019-04-03T14:20:05.080Z,14.22
2019-04-03T14:22:32.564Z,14.39
2019-04-03T14:25:01.997Z,15.09
2019-04-03T14:27:31.256Z,15.43
2019-04-03T14:30:01.194Z,15.23
2019-04-03T14:32:28.641Z,15.26
2019-04-03T14:35:05.312Z,15.21
2019-04-03T14:37:26.721Z,15.35
2019-04-03T14:39:54.417Z,14.54
2019-04-03T14:42:21.876Z,14.72
2019-04-03T14:44:49.362Z,15.13
2019-04-03T14:47:16.926Z,14.98
2019-04-03T14:49:44.925Z,14.21
2019-04-03T14:52:13.176Z,12.94
2019-04-03T14:55:20.288Z,11.37
2019-04-03T14:58:26.894Z,11.66
2019-04-03T15:00:54.307Z,11.77
2019-04-03T15:03:21.864Z,10.33
2019-04-03T15:05:49.148Z,10.49
2019-04-03T15:08:16.414Z,9.98
2019-04-03T15:10:43.844Z,10.53
2019-04-03T15:13:14.459Z,10.42
2019-04-03T15:15:42.390Z,10.33
2019-04-03T15:18:10.586Z,10.21
2019-04-03T15:20:38.467Z,10.52
2019-04-03T15:23:06.566Z,10.22
2019-04-03T15:25:34.324Z,10.06
2019-04-03T15:28:01.849Z,9.76
2019-04-03T15:30:29.523Z,9.34
2019-04-03T15:32:56.595Z,9.29
2019-04-03T15:35:24.315Z,9.41
2019-04-03T15:37:52.514Z,9.29
2019-04-03T15:40:20.796Z,9.14
2019-04-03T15:42:48.093Z,9.08
2019-04-03T15:45:16.192Z,8.98
2019-04-03T15:47:46.806Z,8.85
2019-04-03T15:50:16.284Z,8.62
2019-04-03T15:52:48.252Z,8.64
2019-04-03T15:55:18.704Z,8.67
2019-04-03T15:57:51.736Z,8.57
2019-04-03T16:00:18.021Z,8.46
2019-04-03T16:02:47.000Z,8.30
2019-04-03T16:05:17.855Z,8.25
2019-04-03T16:07:48.769Z,8.28
2019-04-03T16:10:21.766Z,8.19
2019-04-03T16:12:50.976Z,8.34
2019-04-03T16:15:20.206Z,8.54
2019-04-03T16:17:54.384Z,8.50
2019-04-03T16:20:25.288Z,8.27
2019-04-03T16:22:54.850Z,8.12
2019-04-03T16:25:25.514Z,7.91
2019-04-03T16:27:54.552Z,7.71
2019-04-03T16:30:21.868Z,7.49
2019-04-03T16:32:50.136Z,7.52
2019-04-03T16:35:17.569Z,7.59
2019-04-03T16:37:44.748Z,7.63
2019-04-03T16:40:16.933Z,7.76
2019-04-03T16:42:47.591Z,7.85
2019-04-03T16:45:14.813Z,8.20
2019-04-03T16:47:45.260Z,8.12
2019-04-03T16:50:13.717Z,7.91
2019-04-03T16:52:41.166Z,8.00
2019-04-03T16:55:08.587Z,8.35
2019-04-03T16:57:39.401Z,8.57
2019-04-03T17:00:10.039Z,8.36
2019-04-03T17:02:39.418Z,8.50
2019-04-03T17:05:10.462Z,8.43
2019-04-03T17:07:39.179Z,8.49
2019-04-03T17:10:09.413Z,8.40
2019-04-03T17:12:35.922Z,8.38
2019-04-03T17:15:06.744Z,8.23
2019-04-03T17:17:33.922Z,8.39
2019-04-03T17:20:01.411Z,8.43
2019-04-03T17:22:28.727Z,8.44
2019-04-03T17:24:56.537Z,8.68
2019-04-03T17:27:29.658Z,8.45
2019-04-03T17:29:56.196Z,8.53
2019-04-03T17:32:24.657Z,8.44
2019-04-03T17:34:53.692Z,8.44
2019-04-03T17:37:25.481Z,8.51
2019-04-03T17:39:53.607Z,8.72
2019-04-03T17:42:20.804Z,8.62
2019-04-03T17:44:48.064Z,8.68
2019-04-03T17:47:19.415Z,8.63
2019-04-03T17:49:47.499Z,8.66
2019-04-03T17:52:14.936Z,8.82
2019-04-03T17:54:42.135Z,8.78
2019-04-03T17:57:09.244Z,8.63
2019-04-03T17:59:41.550Z,8.63
2019-04-03T18:02:12.411Z,8.69
2019-04-03T18:04:42.505Z,8.68
2019-04-03T18:07:11.932Z,8.76
2019-04-03T18:09:41.804Z,8.68
2019-04-03T18:12:07.892Z,8.62
2019-04-03T18:14:36.118Z,8.37
2019-04-03T18:17:03.923Z,8.39
2019-04-03T18:19:37.840Z,8.28
2019-04-03T18:22:07.536Z,8.21
2019-04-03T18:24:39.436Z,8.03
2019-04-03T18:27:08.000Z,7.83
2019-04-03T18:29:37.314Z,8.00
2019-04-03T18:32:07.476Z,8.12
2019-04-03T18:34:37.448Z,7.94
2019-04-03T18:37:07.347Z,7.76
2019-04-03T18:39:36.759Z,7.85
2019-04-03T18:42:06.296Z,8.12
2019-04-03T18:44:36.627Z,8.19
2019-04-03T18:47:04.954Z,8.20
2019-04-03T18:49:35.108Z,8.13
2019-04-03T18:52:11.337Z,8.25
2019-04-03T18:54:45.651Z,8.28
2019-04-03T18:57:28.276Z,8.16
2019-04-03T18:59:56.472Z,8.32
2019-04-03T19:02:26.918Z,8.44
2019-04-03T19:05:02.248Z,8.48
2019-04-03T19:07:33.662Z,8.29
2019-04-03T19:10:08.024Z,8.28
2019-04-03T19:12:36.216Z,8.34
2019-04-03T19:15:04.297Z,8.30
2019-04-03T19:17:35.032Z,8.22
2019-04-03T19:20:11.284Z,8.25
2019-04-03T19:23:01.563Z,8.27
2019-04-03T19:25:38.276Z,8.26
2019-04-03T19:28:05.912Z,7.71
2019-04-03T19:30:40.805Z,7.64
2019-04-03T19:33:09.774Z,7.78
2019-04-03T19:35:37.241Z,7.82
2019-04-03T19:38:05.079Z,7.59
2019-04-03T19:40:51.473Z,7.76
2019-04-03T19:43:18.568Z,7.82
2019-04-03T19:45:46.791Z,8.18
2019-04-03T19:48:14.010Z,8.33
2019-04-03T19:50:42.443Z,8.33
2019-04-03T19:53:12.949Z,8.15
2019-04-03T19:55:39.598Z,8.11
2019-04-03T19:58:06.907Z,8.09
2019-04-03T20:00:35.502Z,8.25
2019-04-03T20:03:04.790Z,8.18
2019-04-03T20:05:31.912Z,8.17
2019-04-03T20:07:59.452Z,8.27
2019-04-03T20:10:27.004Z,8.38
2019-04-03T20:12:54.369Z,8.33
2019-04-03T20:15:23.391Z,8.16
2019-04-03T20:17:50.639Z,7.91
2019-04-03T20:20:17.957Z,7.77
2019-04-03T20:22:47.768Z,7.76
2019-04-03T20:25:15.349Z,7.83
2019-04-03T20:27:42.852Z,8.05
2019-04-03T20:30:22.749Z,8.02
2019-04-03T20:32:50.013Z,7.93
2019-04-03T20:35:18.651Z,7.55
2019-04-03T20:37:52.538Z,7.16
2019-04-03T20:40:25.251Z,6.94
2019-04-03T20:43:00.765Z,6.93
2019-04-03T20:45:34.507Z,7.24
2019-04-03T20:48:03.485Z,7.48
2019-04-03T20:50:43.287Z,7.49
2019-04-03T20:53:17.140Z,7.63
2019-04-03T20:56:34.154Z,7.75
2019-04-03T20:59:11.034Z,7.84
2019-04-03T21:01:42.375Z,8.15
2019-04-03T21:04:09.569Z,8.23
2019-04-03T21:06:37.432Z,8.37
2019-04-03T21:09:05.766Z,8.45
2019-04-03T21:11:37.095Z,8.32
2019-04-03T21:14:06.036Z,8.39
2019-04-03T21:16:33.646Z,8.66
2019-04-03T21:19:05.055Z,8.79
2019-04-03T21:21:32.662Z,8.71
2019-04-03T21:24:03.953Z,8.41
2019-04-03T21:26:32.022Z,8.05
2019-04-03T21:28:59.302Z,7.95
2019-04-03T21:31:27.577Z,8.02
2019-04-03T21:33:55.499Z,8.13
2019-04-03T21:36:27.201Z,8.19
2019-04-03T21:38:54.390Z,8.22
2019-04-03T21:41:26.841Z,8.10
2019-04-03T21:43:55.470Z,7.90
2019-04-03T21:46:25.448Z,7.89
2019-04-03T21:48:52.682Z,7.90
2019-04-03T21:51:23.296Z,7.91
2019-04-03T21:53:56.466Z,7.94
2019-04-03T21:56:23.341Z,7.93
2019-04-03T21:58:50.380Z,7.90
2019-04-03T22:01:23.400Z,7.69
2019-04-03T22:03:51.676Z,7.88
2019-04-03T22:06:19.069Z,8.06
2019-04-03T22:08:47.617Z,8.26
2019-04-03T22:11:14.657Z,7.98
2019-04-03T22:13:42.140Z,8.11
2019-04-03T22:16:11.984Z,8.34
2019-04-03T22:18:39.289Z,8.33
2019-04-03T22:21:06.789Z,8.38
2019-04-03T22:23:35.985Z,8.13
2019-04-03T22:26:02.940Z,7.90
2019-04-03T22:28:31.184Z,8.00
2019-04-03T22:30:58.454Z,8.04
2019-04-03T22:33:27.669Z,7.94
2019-04-03T22:35:55.466Z,7.91
2019-04-03T22:38:22.738Z,7.68
2019-04-03T22:40:52.496Z,7.63
2019-04-03T22:43:19.932Z,7.76
2019-04-03T22:45:47.091Z,7.87
2019-04-03T22:48:15.224Z,7.97
2019-04-03T22:50:42.463Z,8.06
2019-04-03T22:53:11.260Z,8.02
2019-04-03T22:55:38.803Z,8.06
2019-04-03T22:58:05.859Z,7.95
2019-04-03T23:00:35.000Z,7.83
2019-04-03T23:03:02.844Z,7.70
2019-04-03T23:05:30.801Z,7.51
2019-04-03T23:07:57.844Z,7.57
2019-04-03T23:10:25.280Z,7.69
2019-04-03T23:12:52.307Z,7.67
2019-04-03T23:15:19.401Z,7.76
2019-04-03T23:17:46.537Z,7.60
2019-04-03T23:20:13.560Z,7.58
2019-04-03T23:22:40.697Z,7.51
2019-04-03T23:25:09.017Z,7.45
2019-04-03T23:27:37.949Z,7.50
2019-04-03T23:30:10.038Z,7.29
2019-04-03T23:32:37.924Z,7.17
2019-04-03T23:35:05.199Z,7.20
2019-04-03T23:37:32.256Z,7.30
2019-04-03T23:40:01.008Z,7.21
2019-04-03T23:42:29.840Z,7.35
2019-04-03T23:44:56.889Z,7.59
2019-04-03T23:47:24.015Z,7.65
2019-04-03T23:49:51.684Z,7.60
2019-04-03T23:52:19.062Z,7.81
2019-04-03T23:54:47.304Z,7.88
2019-04-03T23:57:14.349Z,7.79
2019-04-03T23:59:44.467Z,7.73
